Time;durP1;ratioP1;P1;durP2;ratioP2;P2;SDS_P1;SDS_P2;PMS_P1;PMS_P2;Temp;Humidity;BMP_temperature;BMP_pressure;BME280_temperature;BME280_humidity;BME280_pressure;Samples;Min_cycle;Max_cycle;Signal;HPM_P1;HPM_P2
2021/08/21 00:01:58;;;;;;;5.33;4.30;;;15.50;99.90;;;;;;4992729;28;20503;-69
2021/08/21 00:04:24;;;;;;;4.60;4.20;;;15.50;99.90;;;;;;4993237;28;20469;-68
2021/08/21 00:06:51;;;;;;;4.77;4.37;;;15.50;99.90;;;;;;4992756;28;20909;-68
2021/08/21 00:09:19;;;;;;;5.13;4.30;;;15.50;99.90;;;;;;4992328;28;20493;-68
2021/08/21 00:11:46;;;;;;;4.53;4.10;;;15.50;99.90;;;;;;4992573;28;20494;-68
2021/08/21 00:14:12;;;;;;;5.97;4.97;;;15.50;99.90;;;;;;4992654;28;20469;-68
2021/08/21 00:16:39;;;;;;;4.67;4.27;;;15.50;99.90;;;;;;4992712;28;20493;-68
2021/08/21 00:19:06;;;;;;;5.23;4.40;;;15.50;99.90;;;;;;4992122;28;20828;-68
2021/08/21 00:21:33;;;;;;;5.07;4.57;;;15.50;99.90;;;;;;4992291;28;20461;-68
2021/08/21 00:23:59;;;;;;;5.83;5.00;;;15.50;99.90;;;;;;4992409;28;20462;-68
2021/08/21 00:26:27;;;;;;;5.97;4.47;;;15.40;99.90;;;;;;4992663;28;21005;-68
2021/08/21 00:28:54;;;;;;;5.00;4.60;;;15.40;99.90;;;;;;4991715;28;20861;-68
2021/08/21 00:31:21;;;;;;;5.10;4.60;;;15.30;99.90;;;;;;4992695;28;20473;-67
2021/08/21 00:33:48;;;;;;;5.70;5.00;;;15.30;99.90;;;;;;4992399;28;20466;-68
2021/08/21 00:36:14;;;;;;;7.23;4.93;;;15.30;99.90;;;;;;4992548;28;20552;-69
2021/08/21 00:38:41;;;;;;;5.43;4.93;;;15.30;99.90;;;;;;4991850;28;20473;-68
2021/08/21 00:41:08;;;;;;;5.67;5.10;;;15.30;99.90;;;;;;4992333;28;20463;-68
2021/08/21 00:43:36;;;;;;;4.83;4.43;;;15.20;99.90;;;;;;4992276;28;20472;-68
2021/08/21 00:46:03;;;;;;;5.47;4.70;;;15.20;99.90;;;;;;4992137;28;21279;-70
2021/08/21 00:48:30;;;;;;;5.50;4.57;;;15.20;99.90;;;;;;4991769;28;20856;-67
2021/08/21 00:51:00;;;;;;;4.73;4.23;;;15.10;99.90;;;;;;4992006;28;20462;-68
2021/08/21 00:53:27;;;;;;;5.90;5.37;;;15.10;99.90;;;;;;4992267;28;20954;-69
2021/08/21 00:55:54;;;;;;;5.17;4.67;;;15.10;99.90;;;;;;4992004;28;20494;-69
2021/08/21 00:58:22;;;;;;;6.13;5.37;;;15.10;99.90;;;;;;4991591;28;20462;-69
2021/08/21 01:00:50;;;;;;;6.10;4.93;;;15.10;99.90;;;;;;4991992;28;20466;-69
2021/08/21 01:03:16;;;;;;;5.30;4.80;;;15.10;99.90;;;;;;4991877;28;20473;-69
2021/08/21 01:05:43;;;;;;;4.90;4.40;;;15.10;99.90;;;;;;4991682;28;20458;-67
2021/08/21 01:08:10;;;;;;;5.57;5.07;;;15.20;99.90;;;;;;4991110;28;20469;-69
2021/08/21 01:10:36;;;;;;;5.83;5.37;;;15.10;99.90;;;;;;4990942;28;20999;-69
2021/08/21 01:13:04;;;;;;;5.90;4.93;;;15.10;99.90;;;;;;4991466;28;20470;-68
2021/08/21 01:15:31;;;;;;;5.90;4.50;;;15.10;99.90;;;;;;4991851;28;20477;-68
2021/08/21 01:17:59;;;;;;;6.13;5.60;;;15.10;99.90;;;;;;4991021;28;20469;-68
2021/08/21 01:20:27;;;;;;;7.13;5.57;;;15.10;99.90;;;;;;4991847;28;21086;-67
2021/08/21 01:22:54;;;;;;;5.50;4.90;;;15.10;99.90;;;;;;4991416;28;20466;-67
2021/08/21 01:25:25;;;;;;;5.27;4.77;;;15.10;99.90;;;;;;4991766;28;20524;-69
2021/08/21 01:27:54;;;;;;;5.17;4.67;;;15.10;99.90;;;;;;4990668;28;20849;-68
2021/08/21 01:30:21;;;;;;;5.70;5.20;;;15.00;99.90;;;;;;4991545;28;20852;-67
2021/08/21 01:32:48;;;;;;;6.40;5.00;;;15.00;99.90;;;;;;4991294;28;20466;-67
2021/08/21 01:35:17;;;;;;;6.20;5.27;;;14.90;99.90;;;;;;4991636;28;20470;-68
2021/08/21 01:37:44;;;;;;;6.30;5.70;;;14.90;99.90;;;;;;4990721;28;21004;-68
2021/08/21 01:40:12;;;;;;;8.20;5.27;;;14.90;99.90;;;;;;4991319;28;20481;-68
2021/08/21 01:42:40;;;;;;;5.60;5.00;;;14.90;99.90;;;;;;4991465;28;20466;-68
2021/08/21 01:45:12;;;;;;;6.33;5.43;;;14.80;99.90;;;;;;4991243;28;20873;-68
2021/08/21 01:47:39;;;;;;;7.60;5.80;;;14.80;99.90;;;;;;4990940;28;21002;-67
2021/08/21 01:50:10;;;;;;;6.13;5.53;;;14.80;99.90;;;;;;4990912;28;20494;-67
2021/08/21 01:52:37;;;;;;;6.73;5.53;;;14.70;99.90;;;;;;4991372;28;21001;-67
2021/08/21 01:55:05;;;;;;;5.77;5.17;;;14.70;99.90;;;;;;4991061;28;20494;-67
2021/08/21 01:57:32;;;;;;;8.03;5.40;;;14.70;99.90;;;;;;4990717;28;20493;-68
2021/08/21 01:59:58;;;;;;;5.60;5.10;;;14.70;99.90;;;;;;4990961;28;20462;-68
2021/08/21 02:02:27;;;;;;;6.47;5.10;;;14.60;99.90;;;;;;4991361;28;20466;-68
2021/08/21 02:04:54;;;;;;;5.90;5.40;;;14.60;99.90;;;;;;4990956;28;20466;-67
2021/08/21 02:07:20;;;;;;;5.87;5.30;;;14.60;99.90;;;;;;4990880;28;20489;-68
2021/08/21 02:09:47;;;;;;;6.00;5.13;;;14.60;99.90;;;;;;4991114;28;20872;-68
2021/08/21 02:12:16;;;;;;;6.60;6.00;;;14.50;99.90;;;;;;4990834;28;20469;-68
2021/08/21 02:14:43;;;;;;;6.10;5.57;;;14.50;99.90;;;;;;4991044;28;20478;-68
2021/08/21 02:17:10;;;;;;;7.40;6.30;;;14.50;99.90;;;;;;4990897;28;20489;-68
2021/08/21 02:19:38;;;;;;;5.80;5.20;;;14.50;99.90;;;;;;4990944;28;20469;-68
2021/08/21 02:22:06;;;;;;;6.30;5.70;;;14.50;99.90;;;;;;4994245;28;21089;-68
2021/08/21 02:24:34;;;;;;;6.50;5.90;;;14.40;99.90;;;;;;4995209;28;20477;-68
2021/08/21 02:27:04;;;;;;;6.43;5.77;;;14.40;99.90;;;;;;4994478;28;20482;-69
2021/08/21 02:29:31;;;;;;;6.67;6.07;;;14.30;99.90;;;;;;4994707;28;20948;-69
2021/08/21 02:31:58;;;;;;;6.80;5.80;;;14.30;99.90;;;;;;4994628;28;20469;-69
2021/08/21 02:34:25;;;;;;;6.90;5.60;;;14.30;99.90;;;;;;4994764;28;20514;-69
2021/08/21 02:36:54;;;;;;;6.47;5.87;;;14.30;99.90;;;;;;4994796;28;20489;-69
2021/08/21 02:39:21;;;;;;;5.83;5.30;;;14.20;99.90;;;;;;4994207;28;20465;-69
2021/08/21 02:41:48;;;;;;;6.60;5.57;;;14.20;99.90;;;;;;4994691;28;20468;-69
2021/08/21 02:44:15;;;;;;;5.87;5.27;;;14.20;99.90;;;;;;4994377;28;20469;-69
2021/08/21 02:46:42;;;;;;;6.67;5.93;;;14.10;99.90;;;;;;4994624;28;20478;-69
2021/08/21 02:49:09;;;;;;;5.60;5.10;;;14.20;99.90;;;;;;4993623;28;20493;-69
2021/08/21 02:51:36;;;;;;;6.20;5.60;;;14.20;99.90;;;;;;4994600;28;20831;-69
2021/08/21 02:54:04;;;;;;;7.40;5.70;;;14.20;99.90;;;;;;4994063;28;20462;-69
2021/08/21 02:56:31;;;;;;;5.50;5.00;;;14.20;99.90;;;;;;4994423;28;20478;-69
2021/08/21 02:58:57;;;;;;;6.27;5.67;;;14.10;99.90;;;;;;4993591;28;20865;-68
2021/08/21 03:01:24;;;;;;;5.70;5.10;;;14.10;99.90;;;;;;4994449;28;20465;-68
2021/08/21 03:03:51;;;;;;;6.20;5.47;;;14.10;99.90;;;;;;4994268;28;20906;-68
2021/08/21 03:06:17;;;;;;;6.73;5.40;;;14.10;99.90;;;;;;4994284;28;20492;-69
2021/08/21 03:08:44;;;;;;;5.77;5.13;;;14.10;99.90;;;;;;4993674;28;20470;-68
2021/08/21 03:11:12;;;;;;;5.70;5.10;;;14.10;99.90;;;;;;4993838;28;20466;-69
2021/08/21 03:13:40;;;;;;;7.53;5.40;;;14.10;99.90;;;;;;4994141;28;20472;-69
2021/08/21 03:16:07;;;;;;;5.20;4.67;;;14.10;99.90;;;;;;4993783;28;20521;-68
2021/08/21 03:18:34;;;;;;;4.90;4.50;;;14.10;99.90;;;;;;4993652;28;20466;-68
2021/08/21 03:21:01;;;;;;;5.73;5.07;;;14.00;99.90;;;;;;4993827;28;20463;-68
2021/08/21 03:23:27;;;;;;;7.23;5.20;;;14.10;99.90;;;;;;4994019;28;20473;-68
2021/08/21 03:25:54;;;;;;;6.03;5.43;;;14.00;99.90;;;;;;4993631;28;20530;-68
2021/08/21 03:28:22;;;;;;;6.20;5.40;;;14.00;99.90;;;;;;4993588;28;20466;-68
2021/08/21 03:30:49;;;;;;;5.90;5.30;;;14.00;99.90;;;;;;4993786;28;20493;-68
2021/08/21 03:33:15;;;;;;;5.47;5.03;;;14.00;99.90;;;;;;4992734;28;20473;-68
2021/08/21 03:35:43;;;;;;;5.60;5.10;;;14.00;99.90;;;;;;4993669;28;20470;-68
2021/08/21 03:38:10;;;;;;;5.40;4.90;;;14.00;99.90;;;;;;4992865;28;20838;-68
2021/08/21 03:40:37;;;;;;;5.60;5.00;;;13.90;99.90;;;;;;4993593;28;20877;-68
2021/08/21 03:43:04;;;;;;;5.13;4.63;;;13.90;99.90;;;;;;4993379;28;20805;-68
2021/08/21 03:45:32;;;;;;;5.60;5.10;;;13.80;99.90;;;;;;4993735;28;20473;-68
2021/08/21 03:47:58;;;;;;;6.93;5.07;;;13.80;99.90;;;;;;4992601;28;20980;-68
2021/08/21 03:50:25;;;;;;;6.60;5.53;;;13.80;99.90;;;;;;4993531;28;20485;-68
2021/08/21 03:52:52;;;;;;;5.70;5.00;;;13.80;99.90;;;;;;4993209;28;20458;-68
2021/08/21 03:55:19;;;;;;;9.40;5.20;;;13.80;99.90;;;;;;4993284;28;20470;-68
2021/08/21 03:57:46;;;;;;;6.57;4.97;;;13.80;99.90;;;;;;4992817;28;20482;-68
2021/08/21 04:00:13;;;;;;;6.00;5.20;;;13.80;99.90;;;;;;4993097;28;20834;-68
2021/08/21 04:02:41;;;;;;;4.87;4.47;;;13.80;99.90;;;;;;4993328;28;20837;-68
2021/08/21 04:05:09;;;;;;;5.90;5.30;;;13.80;99.90;;;;;;4993205;28;20466;-69
2021/08/21 04:07:36;;;;;;;6.20;4.23;;;13.70;99.90;;;;;;4992659;28;20485;-69
2021/08/21 04:10:03;;;;;;;5.33;4.83;;;13.70;99.90;;;;;;4992894;28;20481;-69
2021/08/21 04:12:30;;;;;;;5.60;5.10;;;13.70;99.90;;;;;;4993392;28;20466;-69
2021/08/21 04:14:57;;;;;;;7.53;4.90;;;13.70;99.90;;;;;;5106020;23;21021;-70
2021/08/21 04:17:23;;;;;;;5.20;4.70;;;13.60;99.90;;;;;;5031917;28;20869;-70
2021/08/21 04:19:51;;;;;;;5.23;4.73;;;13.70;99.90;;;;;;5032037;28;20832;-69
2021/08/21 04:22:18;;;;;;;7.10;5.50;;;13.70;99.90;;;;;;5032350;28;20457;-70
2021/08/21 04:24:45;;;;;;;5.50;4.90;;;13.80;99.90;;;;;;5031962;28;20461;-69
2021/08/21 04:27:11;;;;;;;6.40;4.70;;;13.70;99.90;;;;;;5031865;28;20480;-69
2021/08/21 04:29:38;;;;;;;5.20;4.40;;;13.70;99.90;;;;;;5031812;28;21011;-70
2021/08/21 04:32:05;;;;;;;5.33;4.83;;;13.70;99.90;;;;;;5031859;28;20464;-69
2021/08/21 04:34:34;;;;;;;5.40;4.83;;;13.70;99.90;;;;;;5032179;28;20468;-69
2021/08/21 04:37:04;;;;;;;5.53;5.03;;;13.60;99.90;;;;;;5031765;28;20492;-69
2021/08/21 04:39:30;;;;;;;4.80;4.40;;;13.70;99.90;;;;;;5031431;28;20456;-69
2021/08/21 04:41:57;;;;;;;5.60;5.10;;;13.60;99.90;;;;;;5031554;28;20464;-70
2021/08/21 04:44:24;;;;;;;5.50;5.00;;;13.60;99.90;;;;;;5031838;28;20464;-70
2021/08/21 04:46:51;;;;;;;5.10;4.60;;;13.70;99.90;;;;;;5031532;28;20495;-69
2021/08/21 04:49:18;;;;;;;5.30;4.80;;;13.70;99.90;;;;;;5031223;28;20461;-69
2021/08/21 04:51:44;;;;;;;7.70;4.57;;;13.70;99.90;;;;;;5031480;28;20468;-70
2021/08/21 04:54:12;;;;;;;4.57;4.17;;;13.80;99.90;;;;;;5031524;28;20456;-70
2021/08/21 04:56:39;;;;;;;6.07;4.43;;;13.80;99.90;;;;;;5031552;28;20483;-69
2021/08/21 04:59:06;;;;;;;6.43;5.03;;;13.80;99.90;;;;;;5030739;28;20829;-69
2021/08/21 05:01:32;;;;;;;5.13;4.70;;;13.80;99.90;;;;;;5031634;28;20452;-70
2021/08/21 05:03:59;;;;;;;4.83;4.43;;;13.80;99.90;;;;;;5031199;28;20475;-69
2021/08/21 05:06:26;;;;;;;5.80;5.30;;;13.80;99.90;;;;;;5031606;28;20491;-70
2021/08/21 05:08:52;;;;;;;4.60;4.20;;;13.90;99.90;;;;;;5030848;28;20468;-69
2021/08/21 05:11:20;;;;;;;7.03;4.80;;;13.90;99.90;;;;;;5031664;28;20485;-69
2021/08/21 05:13:47;;;;;;;5.43;4.83;;;14.00;99.90;;;;;;5031106;28;20623;-70
2021/08/21 05:16:14;;;;;;;5.47;4.97;;;14.10;99.90;;;;;;5031544;28;20915;-69
2021/08/21 05:18:45;;;;;;;4.83;4.43;;;14.10;99.90;;;;;;5030737;28;20467;-69
2021/08/21 05:21:13;;;;;;;6.53;5.17;;;14.20;99.90;;;;;;5031382;28;20464;-70
2021/08/21 05:23:41;;;;;;;5.57;4.87;;;14.20;99.90;;;;;;5031112;28;20479;-69
2021/08/21 05:26:08;;;;;;;8.00;5.20;;;14.20;99.90;;;;;;5030917;28;20484;-69
2021/08/21 05:28:37;;;;;;;5.23;4.70;;;14.30;99.90;;;;;;5030687;28;20467;-70
2021/08/21 05:31:04;;;;;;;5.33;4.83;;;14.40;99.90;;;;;;5030657;28;20587;-70
2021/08/21 05:33:31;;;;;;;5.20;4.70;;;14.40;99.90;;;;;;5031675;28;20960;-69
2021/08/21 05:35:57;;;;;;;5.00;4.60;;;14.40;99.90;;;;;;5031445;28;20857;-69
2021/08/21 05:38:24;;;;;;;5.80;5.20;;;14.50;99.90;;;;;;5030538;28;20551;-69
2021/08/21 05:40:51;;;;;;;6.07;5.43;;;14.50;99.90;;;;;;5031076;28;20457;-70
2021/08/21 05:43:18;;;;;;;5.27;4.77;;;14.60;99.90;;;;;;5031156;28;20465;-69
2021/08/21 05:45:46;;;;;;;5.73;5.23;;;14.60;99.90;;;;;;5030642;28;20471;-69
2021/08/21 05:48:12;;;;;;;5.00;4.60;;;14.60;99.90;;;;;;5030409;28;20464;-70
2021/08/21 05:50:39;;;;;;;5.87;5.00;;;14.70;99.90;;;;;;5030757;28;20495;-70
2021/08/21 05:53:06;;;;;;;6.40;5.13;;;14.70;99.90;;;;;;5030599;28;20487;-70
2021/08/21 05:55:33;;;;;;;5.90;5.33;;;14.80;99.90;;;;;;5030465;28;20468;-69
2021/08/21 05:58:00;;;;;;;6.17;5.57;;;14.80;99.90;;;;;;5030023;28;20472;-70
2021/08/21 06:00:26;;;;;;;6.33;5.00;;;14.90;99.90;;;;;;5030753;28;20457;-69
2021/08/21 06:02:55;;;;;;;5.30;4.80;;;14.90;99.90;;;;;;5030215;28;20460;-69
2021/08/21 06:05:22;;;;;;;4.60;4.20;;;15.00;99.90;;;;;;5030737;28;20892;-69
2021/08/21 06:07:48;;;;;;;5.80;4.63;;;15.00;99.90;;;;;;5029726;28;20842;-69
2021/08/21 06:10:15;;;;;;;5.50;5.00;;;15.10;99.90;;;;;;5029276;28;20487;-69
2021/08/21 06:12:42;;;;;;;5.53;5.03;;;15.10;99.90;;;;;;5027782;28;20476;-69
2021/08/21 06:15:09;;;;;;;5.70;5.20;;;15.20;99.90;;;;;;5028108;28;21028;-69
2021/08/21 06:17:36;;;;;;;5.80;5.07;;;15.20;99.90;;;;;;5026718;28;20488;-69
2021/08/21 06:20:05;;;;;;;6.03;5.53;;;15.30;99.90;;;;;;5027897;28;20472;-69
2021/08/21 06:22:32;;;;;;;6.10;5.60;;;15.30;99.90;;;;;;5027872;28;20460;-69
2021/08/21 06:24:59;;;;;;;5.07;4.57;;;15.40;99.90;;;;;;5027835;28;20466;-70
2021/08/21 06:27:25;;;;;;;6.77;5.10;;;15.40;99.90;;;;;;5027455;28;20484;-70
2021/08/21 06:29:52;;;;;;;5.10;4.60;;;15.50;99.90;;;;;;5027950;28;20464;-70
2021/08/21 06:32:19;;;;;;;5.23;4.73;;;15.50;99.90;;;;;;5030303;28;20460;-70
2021/08/21 06:34:45;;;;;;;5.63;5.13;;;15.60;99.90;;;;;;5027206;28;20468;-70
2021/08/21 06:37:13;;;;;;;6.03;4.67;;;15.70;99.90;;;;;;5027649;28;20487;-70
2021/08/21 06:39:40;;;;;;;6.10;5.50;;;15.70;99.90;;;;;;5028266;28;20475;-70
2021/08/21 06:42:07;;;;;;;5.20;4.70;;;15.80;99.90;;;;;;5029862;28;20471;-70
2021/08/21 06:44:33;;;;;;;6.43;5.90;;;15.90;99.90;;;;;;5030029;28;20468;-69
2021/08/21 06:47:00;;;;;;;6.07;5.47;;;16.00;99.90;;;;;;5029675;28;20480;-70
2021/08/21 06:49:27;;;;;;;7.03;6.43;;;16.10;99.90;;;;;;5029436;28;20506;-69
2021/08/21 06:51:54;;;;;;;8.60;6.03;;;16.20;99.90;;;;;;5029939;28;20495;-70
2021/08/21 06:54:22;;;;;;;6.30;5.70;;;16.20;99.90;;;;;;5030065;28;20518;-69
2021/08/21 06:56:49;;;;;;;8.30;6.30;;;16.30;99.90;;;;;;5030144;28;20491;-69
2021/08/21 06:59:15;;;;;;;10.23;6.50;;;16.40;99.90;;;;;;5029588;28;20514;-69
2021/08/21 07:01:42;;;;;;;7.10;6.30;;;16.50;99.90;;;;;;5029990;28;20966;-70
2021/08/21 07:04:09;;;;;;;7.37;6.33;;;16.60;99.90;;;;;;5029943;28;20468;-70
2021/08/21 07:06:35;;;;;;;6.77;6.17;;;16.80;99.90;;;;;;5029730;28;20484;-69
2021/08/21 07:09:02;;;;;;;6.97;6.03;;;16.90;99.90;;;;;;5032250;28;20975;-70
2021/08/21 07:11:30;;;;;;;7.57;5.90;;;17.00;99.90;;;;;;5033408;28;20488;-70
2021/08/21 07:13:57;;;;;;;7.70;7.00;;;17.10;99.90;;;;;;5033244;28;20466;-69
2021/08/21 07:16:24;;;;;;;6.63;5.93;;;17.10;99.90;;;;;;5033124;28;20484;-70
2021/08/21 07:18:51;;;;;;;9.43;6.80;;;17.20;99.90;;;;;;5033135;28;20806;-69
2021/08/21 07:21:18;;;;;;;10.70;6.77;;;17.30;99.90;;;;;;5033368;28;20831;-71
2021/08/21 07:23:44;;;;;;;10.33;6.40;;;17.30;99.90;;;;;;5033098;28;20466;-71
2021/08/21 07:26:11;;;;;;;6.07;5.40;;;17.40;99.90;;;;;;5033182;28;20844;-71
2021/08/21 07:28:39;;;;;;;9.33;5.50;;;17.60;99.90;;;;;;5032608;28;20468;-68
2021/08/21 07:31:06;;;;;;;5.70;4.80;;;17.70;99.90;;;;;;5032881;28;20484;-69
2021/08/21 07:33:33;;;;;;;5.20;4.47;;;17.80;99.90;;;;;;5032727;28;20456;-69
2021/08/21 07:35:59;;;;;;;7.40;5.27;;;17.90;99.90;;;;;;5032424;28;20487;-69
2021/08/21 07:38:26;;;;;;;6.73;4.70;;;18.10;99.90;;;;;;5031762;28;20956;-69
2021/08/21 07:40:53;;;;;;;4.90;4.30;;;18.20;99.90;;;;;;5032647;28;20461;-69
2021/08/21 07:43:19;;;;;;;5.30;4.80;;;18.30;99.90;;;;;;5032877;28;20460;-70
2021/08/21 07:45:48;;;;;;;5.70;4.80;;;18.40;99.90;;;;;;5030766;28;20464;-67
2021/08/21 07:48:15;;;;;;;5.30;4.80;;;18.50;99.90;;;;;;5030730;28;20468;-67
2021/08/21 07:50:41;;;;;;;8.23;5.33;;;18.60;99.90;;;;;;5032269;28;20489;-68
2021/08/21 07:53:08;;;;;;;4.90;4.30;;;18.70;99.90;;;;;;5032225;28;20948;-68
2021/08/21 07:55:36;;;;;;;4.67;4.27;;;18.80;99.90;;;;;;5032359;28;20457;-67
2021/08/21 07:58:03;;;;;;;4.77;4.37;;;18.90;99.90;;;;;;5031761;28;20937;-67
2021/08/21 08:00:30;;;;;;;5.47;4.97;;;19.00;99.90;;;;;;5032130;28;20957;-67
2021/08/21 08:02:58;;;;;;;5.43;4.93;;;19.10;99.90;;;;;;5032055;28;20460;-67
2021/08/21 08:05:24;;;;;;;4.67;4.13;;;19.20;99.90;;;;;;5032073;28;20518;-68
2021/08/21 08:07:51;;;;;;;5.20;4.47;;;19.30;99.90;;;;;;5031613;28;20483;-68
2021/08/21 08:10:18;;;;;;;3.87;3.57;;;19.40;99.90;;;;;;5028508;28;20464;-68
2021/08/21 08:12:44;;;;;;;4.97;4.57;;;19.50;99.90;;;;;;5031932;28;20499;-68
2021/08/21 08:15:12;;;;;;;5.20;4.10;;;19.60;99.90;;;;;;5032339;28;20475;-68
2021/08/21 08:17:39;;;;;;;5.20;4.43;;;19.70;99.90;;;;;;5031756;28;20484;-68
2021/08/21 08:20:09;;;;;;;5.67;5.00;;;19.80;99.90;;;;;;5013411;28;20976;-68
2021/08/21 08:22:35;;;;;;;6.30;5.47;;;19.80;99.90;;;;;;5012253;28;20472;-67
2021/08/21 08:25:02;;;;;;;4.70;4.23;;;19.90;99.90;;;;;;5024422;28;20832;-68
2021/08/21 08:27:29;;;;;;;4.40;4.00;;;20.00;99.90;;;;;;5031106;28;20491;-67
2021/08/21 08:29:55;;;;;;;6.40;4.40;;;20.10;99.90;;;;;;5031794;28;20975;-67
2021/08/21 08:32:22;;;;;;;5.10;4.37;;;20.20;99.90;;;;;;5025586;28;21011;-67
2021/08/21 08:34:49;;;;;;;5.00;4.40;;;20.40;99.90;;;;;;5011924;28;20465;-68
2021/08/21 08:37:17;;;;;;;6.87;4.90;;;20.50;99.90;;;;;;5011507;28;20488;-68
2021/08/21 08:39:43;;;;;;;9.20;4.40;;;20.70;99.90;;;;;;4995804;28;20470;-67
2021/08/21 08:42:11;;;;;;;6.03;5.10;;;20.80;99.90;;;;;;4992331;28;20958;-68
2021/08/21 08:44:46;;;;;;;4.60;4.20;;;21.00;99.90;;;;;;4991851;28;20958;-67
2021/08/21 08:47:13;;;;;;;5.17;4.23;;;21.10;99.90;;;;;;4992003;28;20482;-67
2021/08/21 08:49:40;;;;;;;5.03;4.53;;;21.20;99.90;;;;;;4991679;28;20470;-68
2021/08/21 08:52:08;;;;;;;4.80;4.30;;;21.30;99.90;;;;;;4992024;28;20490;-68
2021/08/21 08:54:36;;;;;;;4.97;4.57;;;21.50;99.90;;;;;;4991493;28;20469;-68
2021/08/21 08:57:03;;;;;;;4.70;4.00;;;21.50;99.90;;;;;;4991815;28;20482;-67
2021/08/21 08:59:31;;;;;;;4.57;4.17;;;21.60;99.90;;;;;;4990893;28;20957;-67
2021/08/21 09:01:57;;;;;;;4.10;3.70;;;21.70;99.90;;;;;;4991813;28;20469;-68
2021/08/21 09:04:26;;;;;;;4.73;4.20;;;21.80;99.90;;;;;;4991645;28;20468;-67
2021/08/21 09:06:53;;;;;;;5.60;4.50;;;21.90;99.90;;;;;;4991846;28;20523;-67
2021/08/21 09:09:22;;;;;;;5.17;4.03;;;22.10;99.90;;;;;;5005980;28;20465;-67
2021/08/21 09:11:53;;;;;;;4.90;4.13;;;22.20;99.90;;;;;;5010922;28;20489;-67
2021/08/21 09:14:25;;;;;;;6.37;4.83;;;22.20;99.90;;;;;;5011286;28;20476;-67
2021/08/21 09:16:52;;;;;;;5.40;4.90;;;22.20;99.90;;;;;;5011019;28;20515;-67
2021/08/21 09:19:26;;;;;;;5.67;4.57;;;22.30;99.90;;;;;;5010736;28;20465;-67
2021/08/21 09:22:01;;;;;;;4.33;3.93;;;22.50;99.90;;;;;;5011600;28;20492;-67
2021/08/21 09:24:27;;;;;;;6.20;4.33;;;22.60;99.90;;;;;;5011878;28;20468;-67
2021/08/21 09:26:55;;;;;;;4.07;3.77;;;22.70;99.90;;;;;;5011641;28;20485;-67
2021/08/21 09:29:27;;;;;;;4.70;4.30;;;22.80;99.90;;;;;;5011483;28;20461;-67
2021/08/21 09:32:06;;;;;;;4.77;4.37;;;22.90;99.90;;;;;;5010475;28;21079;-67
2021/08/21 09:34:33;;;;;;;5.33;3.90;;;23.10;99.90;;;;;;5010949;28;20531;-67
2021/08/21 09:37:00;;;;;;;5.57;4.30;;;23.30;99.90;;;;;;5011642;28;20487;-68
2021/08/21 09:39:35;;;;;;;5.77;5.27;;;23.40;99.90;;;;;;5010429;28;20472;-67
2021/08/21 09:42:05;;;;;;;9.43;4.70;;;23.40;99.90;;;;;;5011078;28;20462;-67
2021/08/21 09:44:33;;;;;;;5.77;4.47;;;23.50;99.90;;;;;;5010756;28;20500;-68
2021/08/21 09:47:15;;;;;;;5.10;4.60;;;23.60;99.90;;;;;;5011029;28;20515;-67
2021/08/21 09:49:43;;;;;;;6.53;5.93;;;23.60;99.90;;;;;;5010153;28;20468;-67
2021/08/21 09:52:12;;;;;;;6.53;5.80;;;23.70;99.90;;;;;;5024694;28;20488;-67
2021/08/21 09:54:39;;;;;;;6.67;5.70;;;23.80;99.90;;;;;;5029428;28;20460;-67
2021/08/21 09:57:07;;;;;;;6.00;5.47;;;23.80;99.90;;;;;;5029387;28;20563;-67
2021/08/21 09:59:39;;;;;;;6.07;5.57;;;23.80;99.90;;;;;;5025856;28;20906;-67
2021/08/21 10:02:07;;;;;;;6.10;5.17;;;23.90;99.90;;;;;;5009589;28;20931;-67
2021/08/21 10:04:35;;;;;;;6.30;5.47;;;23.90;99.90;;;;;;5009673;28;20472;-67
2021/08/21 10:07:04;;;;;;;6.23;5.63;;;23.90;99.90;;;;;;5009712;28;20485;-67
2021/08/21 10:09:32;;;;;;;6.00;5.40;;;24.10;99.90;;;;;;5010341;28;20472;-67
2021/08/21 10:11:59;;;;;;;7.23;5.20;;;24.30;99.90;;;;;;5010703;28;20492;-67
2021/08/21 11:08:02;;;;;;;5.47;4.97;;;26.20;99.90;;;;;;5031193;28;20481;-68
2021/08/21 11:10:30;;;;;;;6.33;5.67;;;26.00;99.90;;;;;;5033512;28;20455;-68
2021/08/21 11:12:57;;;;;;;5.70;5.10;;;26.00;99.90;;;;;;5033030;28;20546;-68
2021/08/21 11:15:25;;;;;;;5.50;5.03;;;26.00;99.90;;;;;;5033427;28;20836;-67
2021/08/21 11:17:52;;;;;;;6.50;5.10;;;25.90;99.90;;;;;;5032848;28;20485;-68
2021/08/21 11:20:27;;;;;;;6.83;5.60;;;26.10;99.90;;;;;;5033045;28;20467;-68
2021/08/21 11:23:18;;;;;;;6.17;5.00;;;26.30;99.90;;;;;;5032776;28;20460;-68
2021/08/21 11:25:46;;;;;;;6.30;5.60;;;26.50;99.90;;;;;;5033269;28;20555;-67
2021/08/21 11:28:21;;;;;;;5.73;5.23;;;26.60;99.90;;;;;;5032163;28;20859;-67
2021/08/21 11:31:09;;;;;;;5.33;4.93;;;26.70;99.90;;;;;;5033142;28;20470;-67
2021/08/21 11:33:38;;;;;;;6.00;5.40;;;26.90;99.90;;;;;;5033099;28;20499;-67
2021/08/21 11:36:06;;;;;;;6.30;5.70;;;27.00;99.90;;;;;;5032789;28;20504;-68
2021/08/21 11:38:36;;;;;;;5.90;5.40;;;27.00;99.90;;;;;;5032287;28;20952;-67
2021/08/21 11:41:05;;;;;;;5.93;5.40;;;27.10;99.90;;;;;;5032524;28;20457;-67
2021/08/21 11:43:34;;;;;;;5.67;5.17;;;27.10;99.90;;;;;;5032850;28;20487;-67
2021/08/21 11:46:02;;;;;;;7.00;6.27;;;27.10;99.90;;;;;;5032667;28;20815;-68
2021/08/21 11:48:30;;;;;;;5.50;5.00;;;27.20;99.90;;;;;;5032331;28;20464;-68
2021/08/21 11:50:58;;;;;;;7.27;5.20;;;27.20;99.90;;;;;;5032358;28;20464;-68
2021/08/21 11:53:28;;;;;;;5.60;4.80;;;27.30;99.90;;;;;;5031879;28;20492;-67
2021/08/21 11:55:57;;;;;;;5.47;5.00;;;27.40;99.90;;;;;;5032751;28;20489;-67
2021/08/21 11:58:29;;;;;;;5.20;4.67;;;27.20;99.90;;;;;;5032351;28;20471;-67
2021/08/21 12:01:03;;;;;;;6.23;4.77;;;27.00;99.90;;;;;;5032519;28;20492;-68
2021/08/21 12:03:35;;;;;;;5.93;5.40;;;27.00;99.90;;;;;;5033097;28;20460;-67
2021/08/21 12:06:02;;;;;;;4.87;4.47;;;27.10;99.90;;;;;;5032477;28;20514;-67
2021/08/21 12:08:30;;;;;;;5.13;4.63;;;27.10;99.90;;;;;;5032303;28;20464;-67
2021/08/21 12:11:00;;;;;;;6.07;5.40;;;27.20;99.90;;;;;;5032198;28;20488;-67
2021/08/21 12:13:29;;;;;;;5.70;5.20;;;27.40;99.90;;;;;;5032210;28;20486;-67
2021/08/21 12:15:58;;;;;;;4.80;4.40;;;27.40;99.90;;;;;;5032167;28;20480;-67
2021/08/21 12:18:27;;;;;;;5.23;4.73;;;27.40;99.90;;;;;;5031794;28;20948;-67
2021/08/21 12:20:54;;;;;;;5.57;5.07;;;27.40;99.90;;;;;;5031866;28;20503;-67
2021/08/21 12:23:21;;;;;;;5.87;5.37;;;27.50;99.90;;;;;;5031862;28;20471;-67
2021/08/21 12:25:51;;;;;;;5.63;5.10;;;27.50;99.90;;;;;;5032198;28;20467;-67
2021/08/21 12:28:20;;;;;;;6.57;4.83;;;27.60;99.90;;;;;;5031222;28;20562;-67
2021/08/21 12:30:58;;;;;;;4.83;4.43;;;27.70;99.90;;;;;;5031994;28;20588;-67
2021/08/21 12:33:30;;;;;;;4.77;4.33;;;27.80;99.90;;;;;;5031854;28;20579;-67
2021/08/21 12:36:07;;;;;;;5.60;4.67;;;27.80;99.90;;;;;;5031816;28;20481;-67
2021/08/21 12:38:34;;;;;;;4.63;4.23;;;27.90;99.90;;;;;;5031293;28;20463;-68
2021/08/21 12:41:05;;;;;;;5.03;4.50;;;27.90;99.90;;;;;;5031331;28;20464;-67
2021/08/21 12:43:34;;;;;;;7.60;5.30;;;28.00;99.90;;;;;;5031393;28;20460;-67
2021/08/21 12:46:01;;;;;;;5.27;4.77;;;28.00;99.90;;;;;;5031438;28;20996;-67
2021/08/21 12:48:28;;;;;;;5.63;5.13;;;28.10;99.90;;;;;;5030970;28;20469;-67
2021/08/21 12:50:54;;;;;;;4.73;4.40;;;28.00;99.90;;;;;;5031314;28;20460;-67
2021/08/21 12:53:24;;;;;;;5.93;5.10;;;28.10;99.90;;;;;;5031321;28;20492;-67
2021/08/21 12:56:09;;;;;;;5.37;4.97;;;28.20;99.90;;;;;;5031476;28;20506;-67
2021/08/21 12:58:37;;;;;;;5.57;4.97;;;28.30;99.90;;;;;;5031019;28;20496;-67
2021/08/21 13:01:09;;;;;;;4.83;4.33;;;28.40;99.90;;;;;;5030819;28;20473;-67
2021/08/21 13:03:36;;;;;;;5.03;4.53;;;28.40;99.90;;;;;;5031594;28;20456;-67
2021/08/21 13:06:03;;;;;;;4.07;3.77;;;28.50;99.90;;;;;;5030728;28;20489;-67
2021/08/21 13:08:35;;;;;;;4.93;4.53;;;28.50;99.90;;;;;;5029241;28;20460;-67
2021/08/21 13:11:02;;;;;;;5.10;4.70;;;28.40;99.90;;;;;;5030515;28;20489;-67
2021/08/21 13:13:29;;;;;;;4.63;4.20;;;28.50;99.90;;;;;;5030970;28;20522;-67
2021/08/21 13:16:04;;;;;;;5.30;4.80;;;28.50;99.90;;;;;;5030550;28;20485;-67
2021/08/21 13:18:31;;;;;;;5.70;4.47;;;28.50;99.90;;;;;;5030634;28;20886;-67
2021/08/21 13:20:58;;;;;;;4.73;4.33;;;28.30;99.90;;;;;;5030422;28;20515;-67
2021/08/21 13:23:25;;;;;;;4.90;4.40;;;28.30;99.90;;;;;;5030750;28;20504;-67
2021/08/21 13:25:51;;;;;;;5.23;4.73;;;28.40;99.90;;;;;;5030763;28;20465;-67
2021/08/21 13:28:19;;;;;;;6.13;5.23;;;28.40;99.90;;;;;;5029665;28;20475;-67
2021/08/21 13:30:45;;;;;;;6.00;4.73;;;28.40;99.90;;;;;;5029279;28;20465;-67
2021/08/21 13:33:13;;;;;;;5.47;4.97;;;28.50;99.90;;;;;;5030315;28;20485;-67
2021/08/21 13:35:41;;;;;;;5.03;4.53;;;28.60;99.90;;;;;;5030644;28;20450;-67
2021/08/21 13:38:10;;;;;;;5.83;5.20;;;28.60;99.90;;;;;;5029733;28;20472;-67
2021/08/21 13:40:37;;;;;;;5.90;5.07;;;28.60;99.90;;;;;;5029994;28;20490;-67
2021/08/21 13:43:04;;;;;;;6.47;5.07;;;28.50;99.90;;;;;;5030211;28;20462;-67